sensor_id;sensor_type;location;lat;lon;timestamp;noise_LAeq;noise_LA_min;noise_LA_max;noise_LA01;noise_LA95
68279;Laerm;55108;51.790;10.960;2023-08-07T00:02:07;35.80;28.82;45.30;;
68279;Laerm;55108;51.790;10.960;2023-08-07T00:04:32;34.30;29.43;44.38;;
68279;Laerm;55108;51.790;10.960;2023-08-07T00:06:58;31.83;28.50;40.55;;
68279;Laerm;55108;51.790;10.960;2023-08-07T00:09:24;38.65;28.96;58.19;;
68279;Laerm;55108;51.790;10.960;2023-08-07T00:11:49;56.51;28.87;73.95;;
68279;Laerm;55108;51.790;10.960;2023-08-07T00:14:15;55.25;29.16;72.21;;
68279;Laerm;55108;51.790;10.960;2023-08-07T00:16:41;38.75;30.44;48.39;;
68279;Laerm;55108;51.790;10.960;2023-08-07T00:19:07;35.12;30.19;43.02;;
68279;Laerm;55108;51.790;10.960;2023-08-07T00:21:32;39.49;29.71;47.80;;
68279;Laerm;55108;51.790;10.960;2023-08-07T00:24:00;40.06;34.08;46.65;;
68279;Laerm;55108;51.790;10.960;2023-08-07T00:26:26;59.26;32.99;75.74;;
68279;Laerm;55108;51.790;10.960;2023-08-07T00:28:52;36.73;31.79;44.01;;
68279;Laerm;55108;51.790;10.960;2023-08-07T00:31:18;37.95;31.71;47.99;;
68279;Laerm;55108;51.790;10.960;2023-08-07T00:33:43;42.40;33.50;53.31;;
68279;Laerm;55108;51.790;10.960;2023-08-07T00:36:09;38.07;31.29;46.16;;
68279;Laerm;55108;51.790;10.960;2023-08-07T00:38:35;39.57;32.33;50.20;;
68279;Laerm;55108;51.790;10.960;2023-08-07T00:41:01;40.07;33.68;49.56;;
68279;Laerm;55108;51.790;10.960;2023-08-07T00:43:26;54.97;31.18;72.46;;
68279;Laerm;55108;51.790;10.960;2023-08-07T00:45:52;46.54;31.51;65.22;;
68279;Laerm;55108;51.790;10.960;2023-08-07T00:48:18;34.59;29.75;41.00;;
68279;Laerm;55108;51.790;10.960;2023-08-07T00:50:44;41.81;29.64;56.22;;
68279;Laerm;55108;51.790;10.960;2023-08-07T00:53:10;39.71;32.71;51.98;;
68279;Laerm;55108;51.790;10.960;2023-08-07T00:55:36;36.10;30.20;42.29;;
68279;Laerm;55108;51.790;10.960;2023-08-07T00:58:02;52.06;31.81;67.79;;
68279;Laerm;55108;51.790;10.960;2023-08-07T01:00:28;40.62;31.66;54.70;;
68279;Laerm;55108;51.790;10.960;2023-08-07T01:02:55;38.49;29.44;48.03;;
68279;Laerm;55108;51.790;10.960;2023-08-07T01:05:23;40.98;34.45;55.00;;
68279;Laerm;55108;51.790;10.960;2023-08-07T01:07:50;63.51;32.01;83.66;;
68279;Laerm;55108;51.790;10.960;2023-08-07T01:10:19;34.55;30.91;42.77;;
68279;Laerm;55108;51.790;10.960;2023-08-07T01:12:48;38.39;31.61;47.70;;
68279;Laerm;55108;51.790;10.960;2023-08-07T01:15:16;39.83;31.03;51.13;;
68279;Laerm;55108;51.790;10.960;2023-08-07T01:17:44;62.43;35.29;79.19;;
68279;Laerm;55108;51.790;10.960;2023-08-07T01:20:11;40.54;34.85;50.19;;
68279;Laerm;55108;51.790;10.960;2023-08-07T01:22:36;41.81;33.53;54.66;;
68279;Laerm;55108;51.790;10.960;2023-08-07T01:25:02;41.72;32.22;49.49;;
68279;Laerm;55108;51.790;10.960;2023-08-07T01:27:41;41.20;34.31;50.71;;
68279;Laerm;55108;51.790;10.960;2023-08-07T01:30:22;52.27;32.08;69.89;;
68279;Laerm;55108;51.790;10.960;2023-08-07T01:35:39;39.30;32.50;47.25;;
68279;Laerm;55108;51.790;10.960;2023-08-07T01:38:06;51.29;34.07;67.39;;
68279;Laerm;55108;51.790;10.960;2023-08-07T01:40:32;44.23;36.34;50.49;;
68279;Laerm;55108;51.790;10.960;2023-08-07T01:42:59;39.69;32.73;57.73;;
68279;Laerm;55108;51.790;10.960;2023-08-07T01:45:26;56.97;33.25;76.44;;
68279;Laerm;55108;51.790;10.960;2023-08-07T01:47:52;64.10;36.54;77.67;;
68279;Laerm;55108;51.790;10.960;2023-08-07T01:50:21;57.16;34.80;75.63;;
68279;Laerm;55108;51.790;10.960;2023-08-07T01:52:47;55.53;35.26;72.54;;
68279;Laerm;55108;51.790;10.960;2023-08-07T01:55:13;44.85;36.85;53.02;;
68279;Laerm;55108;51.790;10.960;2023-08-07T01:57:39;54.97;32.90;73.79;;
68279;Laerm;55108;51.790;10.960;2023-08-07T02:00:05;37.66;33.12;44.78;;
68279;Laerm;55108;51.790;10.960;2023-08-07T02:02:31;41.29;34.42;52.13;;
68279;Laerm;55108;51.790;10.960;2023-08-07T02:04:57;63.49;39.08;83.38;;
68279;Laerm;55108;51.790;10.960;2023-08-07T02:07:23;44.00;34.31;60.24;;
68279;Laerm;55108;51.790;10.960;2023-08-07T02:09:49;62.79;36.39;82.64;;
68279;Laerm;55108;51.790;10.960;2023-08-07T02:12:15;40.54;34.67;46.46;;
68279;Laerm;55108;51.790;10.960;2023-08-07T02:14:40;61.66;34.22;78.71;;
68279;Laerm;55108;51.790;10.960;2023-08-07T02:17:06;62.91;35.05;78.09;;
68279;Laerm;55108;51.790;10.960;2023-08-07T02:19:32;58.77;34.04;75.59;;
68279;Laerm;55108;51.790;10.960;2023-08-07T02:21:58;54.44;37.12;70.45;;
68279;Laerm;55108;51.790;10.960;2023-08-07T02:24:23;45.86;36.92;55.73;;
68279;Laerm;55108;51.790;10.960;2023-08-07T02:26:49;65.38;38.89;84.43;;
68279;Laerm;55108;51.790;10.960;2023-08-07T02:29:15;38.54;35.24;43.08;;
68279;Laerm;55108;51.790;10.960;2023-08-07T02:31:41;62.03;35.83;77.13;;
68279;Laerm;55108;51.790;10.960;2023-08-07T02:34:06;59.68;34.47;79.03;;
68279;Laerm;55108;51.790;10.960;2023-08-07T02:36:32;58.65;36.78;73.82;;
68279;Laerm;55108;51.790;10.960;2023-08-07T02:38:58;62.95;35.80;80.53;;
68279;Laerm;55108;51.790;10.960;2023-08-07T02:41:23;58.37;34.18;74.77;;
68279;Laerm;55108;51.790;10.960;2023-08-07T02:43:49;64.04;36.70;79.42;;
68279;Laerm;55108;51.790;10.960;2023-08-07T02:46:15;57.36;32.08;75.54;;
68279;Laerm;55108;51.790;10.960;2023-08-07T02:48:42;56.31;35.39;71.20;;
68279;Laerm;55108;51.790;10.960;2023-08-07T02:51:08;61.70;36.84;76.95;;
68279;Laerm;55108;51.790;10.960;2023-08-07T02:53:34;42.67;35.51;57.87;;
68279;Laerm;55108;51.790;10.960;2023-08-07T02:56:00;63.64;39.51;81.62;;
68279;Laerm;55108;51.790;10.960;2023-08-07T02:58:26;61.00;36.14;76.63;;
68279;Laerm;55108;51.790;10.960;2023-08-07T03:00:51;63.37;34.15;77.41;;
68279;Laerm;55108;51.790;10.960;2023-08-07T03:03:17;58.37;33.81;75.53;;
68279;Laerm;55108;51.790;10.960;2023-08-07T03:05:49;59.02;37.18;72.78;;
68279;Laerm;55108;51.790;10.960;2023-08-07T03:08:15;42.58;35.39;55.38;;
68279;Laerm;55108;51.790;10.960;2023-08-07T03:10:41;63.60;37.96;81.41;;
68279;Laerm;55108;51.790;10.960;2023-08-07T03:13:07;63.35;37.08;74.98;;
68279;Laerm;55108;51.790;10.960;2023-08-07T03:15:32;64.22;37.57;77.77;;
68279;Laerm;55108;51.790;10.960;2023-08-07T03:17:58;65.36;42.95;78.17;;
68279;Laerm;55108;51.790;10.960;2023-08-07T03:20:24;64.07;36.50;79.15;;
68279;Laerm;55108;51.790;10.960;2023-08-07T03:22:49;65.07;36.69;80.18;;
68279;Laerm;55108;51.790;10.960;2023-08-07T03:25:15;59.98;39.39;72.98;;
68279;Laerm;55108;51.790;10.960;2023-08-07T03:27:41;65.98;37.79;79.41;;
68279;Laerm;55108;51.790;10.960;2023-08-07T03:30:07;62.48;37.50;77.31;;
68279;Laerm;55108;51.790;10.960;2023-08-07T03:32:32;62.61;38.01;77.07;;
68279;Laerm;55108;51.790;10.960;2023-08-07T03:34:58;63.34;38.28;73.25;;
68279;Laerm;55108;51.790;10.960;2023-08-07T03:37:24;61.61;35.73;76.41;;
68279;Laerm;55108;51.790;10.960;2023-08-07T03:39:50;64.73;41.29;76.61;;
68279;Laerm;55108;51.790;10.960;2023-08-07T03:42:15;62.82;32.79;75.73;;
68279;Laerm;55108;51.790;10.960;2023-08-07T03:44:41;64.25;32.28;77.03;;
68279;Laerm;55108;51.790;10.960;2023-08-07T03:47:07;66.73;39.11;77.97;;
68279;Laerm;55108;51.790;10.960;2023-08-07T03:49:33;65.72;40.19;81.21;;
68279;Laerm;55108;51.790;10.960;2023-08-07T03:51:58;68.58;40.39;83.36;;
68279;Laerm;55108;51.790;10.960;2023-08-07T03:54:24;63.11;38.95;76.68;;
68279;Laerm;55108;51.790;10.960;2023-08-07T03:56:50;63.06;39.61;76.43;;
68279;Laerm;55108;51.790;10.960;2023-08-07T03:59:16;64.96;40.42;78.66;;
68279;Laerm;55108;51.790;10.960;2023-08-07T04:01:42;64.51;43.90;77.29;;
68279;Laerm;55108;51.790;10.960;2023-08-07T04:04:08;67.45;41.74;76.25;;
68279;Laerm;55108;51.790;10.960;2023-08-07T04:06:33;67.07;39.62;81.81;;
68279;Laerm;55108;51.790;10.960;2023-08-07T04:08:59;63.59;38.22;80.91;;
68279;Laerm;55108;51.790;10.960;2023-08-07T04:11:25;65.52;41.67;79.98;;
68279;Laerm;55108;51.790;10.960;2023-08-07T04:13:52;64.64;37.95;77.95;;
68279;Laerm;55108;51.790;10.960;2023-08-07T04:16:18;65.96;43.40;78.22;;
68279;Laerm;55108;51.790;10.960;2023-08-07T04:18:43;62.71;36.61;74.75;;
68279;Laerm;55108;51.790;10.960;2023-08-07T04:21:09;66.26;39.07;85.01;;
68279;Laerm;55108;51.790;10.960;2023-08-07T04:23:35;66.18;43.28;76.48;;
68279;Laerm;55108;51.790;10.960;2023-08-07T04:26:01;68.63;48.29;80.24;;
68279;Laerm;55108;51.790;10.960;2023-08-07T04:28:28;67.07;42.51;77.64;;
68279;Laerm;55108;51.790;10.960;2023-08-07T04:30:54;64.90;48.45;74.28;;
68279;Laerm;55108;51.790;10.960;2023-08-07T04:33:20;66.60;41.20;81.37;;
68279;Laerm;55108;51.790;10.960;2023-08-07T04:35:46;67.87;39.12;82.63;;
68279;Laerm;55108;51.790;10.960;2023-08-07T04:38:13;67.29;42.59;80.62;;
68279;Laerm;55108;51.790;10.960;2023-08-07T04:40:43;65.23;43.02;75.93;;
68279;Laerm;55108;51.790;10.960;2023-08-07T04:43:09;68.19;46.27;83.91;;
68279;Laerm;55108;51.790;10.960;2023-08-07T04:45:34;68.60;41.38;81.48;;
68279;Laerm;55108;51.790;10.960;2023-08-07T04:48:02;65.67;43.36;79.49;;
68279;Laerm;55108;51.790;10.960;2023-08-07T04:50:28;66.30;37.10;78.99;;
68279;Laerm;55108;51.790;10.960;2023-08-07T04:52:54;62.84;39.10;78.31;;
68279;Laerm;55108;51.790;10.960;2023-08-07T04:55:20;66.32;42.80;78.14;;
68279;Laerm;55108;51.790;10.960;2023-08-07T04:57:46;65.18;38.90;80.13;;
68279;Laerm;55108;51.790;10.960;2023-08-07T05:00:12;68.13;39.92;80.25;;
68279;Laerm;55108;51.790;10.960;2023-08-07T05:02:38;65.67;39.03;76.59;;
68279;Laerm;55108;51.790;10.960;2023-08-07T05:05:04;62.55;42.11;74.09;;
68279;Laerm;55108;51.790;10.960;2023-08-07T05:07:32;66.91;41.42;79.36;;
68279;Laerm;55108;51.790;10.960;2023-08-07T05:09:58;67.33;46.01;77.20;;
68279;Laerm;55108;51.790;10.960;2023-08-07T05:12:24;68.27;46.03;79.93;;
68279;Laerm;55108;51.790;10.960;2023-08-07T05:14:50;66.86;39.65;79.87;;
68279;Laerm;55108;51.790;10.960;2023-08-07T05:17:16;67.29;44.12;79.48;;
68279;Laerm;55108;51.790;10.960;2023-08-07T05:19:41;65.85;40.92;77.03;;
68279;Laerm;55108;51.790;10.960;2023-08-07T05:22:07;64.37;41.51;76.13;;
68279;Laerm;55108;51.790;10.960;2023-08-07T05:24:33;66.32;46.89;75.74;;
68279;Laerm;55108;51.790;10.960;2023-08-07T05:27:03;68.32;48.79;78.96;;
68279;Laerm;55108;51.790;10.960;2023-08-07T05:29:29;67.85;45.41;82.09;;
68279;Laerm;55108;51.790;10.960;2023-08-07T05:31:55;67.25;44.10;77.89;;
68279;Laerm;55108;51.790;10.960;2023-08-07T05:34:20;66.25;40.45;77.04;;
68279;Laerm;55108;51.790;10.960;2023-08-07T05:36:46;70.95;47.42;87.84;;
68279;Laerm;55108;51.790;10.960;2023-08-07T05:39:12;66.33;41.02;78.44;;
68279;Laerm;55108;51.790;10.960;2023-08-07T05:41:38;67.88;44.95;79.74;;
68279;Laerm;55108;51.790;10.960;2023-08-07T05:44:04;67.90;44.93;85.46;;
68279;Laerm;55108;51.790;10.960;2023-08-07T05:46:30;67.21;45.84;76.63;;
68279;Laerm;55108;51.790;10.960;2023-08-07T05:48:56;67.27;46.40;78.84;;
68279;Laerm;55108;51.790;10.960;2023-08-07T05:51:22;68.03;42.90;84.67;;
68279;Laerm;55108;51.790;10.960;2023-08-07T05:53:47;65.50;42.91;77.86;;
68279;Laerm;55108;51.790;10.960;2023-08-07T05:56:13;67.84;43.93;79.16;;
68279;Laerm;55108;51.790;10.960;2023-08-07T05:58:39;64.70;41.09;75.68;;
68279;Laerm;55108;51.790;10.960;2023-08-07T06:01:05;65.83;44.17;76.95;;
68279;Laerm;55108;51.790;10.960;2023-08-07T06:03:31;68.65;45.08;79.56;;
68279;Laerm;55108;51.790;10.960;2023-08-07T06:05:57;66.03;43.25;80.41;;
68279;Laerm;55108;51.790;10.960;2023-08-07T06:08:23;66.52;41.85;77.25;;
68279;Laerm;55108;51.790;10.960;2023-08-07T06:10:49;66.73;41.24;82.77;;
68279;Laerm;55108;51.790;10.960;2023-08-07T06:13:14;64.06;40.44;76.18;;
68279;Laerm;55108;51.790;10.960;2023-08-07T06:15:40;64.44;41.75;78.28;;
68279;Laerm;55108;51.790;10.960;2023-08-07T06:18:06;62.68;42.95;74.83;;
68279;Laerm;55108;51.790;10.960;2023-08-07T06:20:31;61.73;38.60;75.53;;
68279;Laerm;55108;51.790;10.960;2023-08-07T06:22:59;69.13;44.21;81.32;;
68279;Laerm;55108;51.790;10.960;2023-08-07T06:25:24;66.67;47.76;82.42;;
68279;Laerm;55108;51.790;10.960;2023-08-07T06:27:50;64.17;43.58;74.96;;
68279;Laerm;55108;51.790;10.960;2023-08-07T06:30:16;67.03;41.72;80.09;;
68279;Laerm;55108;51.790;10.960;2023-08-07T06:32:42;67.00;43.87;84.07;;
68279;Laerm;55108;51.790;10.960;2023-08-07T06:35:08;66.07;44.32;80.85;;
68279;Laerm;55108;51.790;10.960;2023-08-07T06:37:33;66.34;46.32;75.90;;
68279;Laerm;55108;51.790;10.960;2023-08-07T06:39:59;68.94;48.04;79.47;;
68279;Laerm;55108;51.790;10.960;2023-08-07T06:42:26;67.02;41.91;77.78;;
68279;Laerm;55108;51.790;10.960;2023-08-07T06:44:52;64.90;41.84;77.04;;
68279;Laerm;55108;51.790;10.960;2023-08-07T06:47:17;66.55;44.83;77.78;;
68279;Laerm;55108;51.790;10.960;2023-08-07T06:49:43;66.58;44.35;77.14;;
68279;Laerm;55108;51.790;10.960;2023-08-07T06:52:09;66.69;46.61;81.03;;
68279;Laerm;55108;51.790;10.960;2023-08-07T06:54:35;70.69;49.80;81.78;;
68279;Laerm;55108;51.790;10.960;2023-08-07T06:57:00;67.88;48.01;79.65;;
68279;Laerm;55108;51.790;10.960;2023-08-07T06:59:26;71.67;50.58;82.48;;
68279;Laerm;55108;51.790;10.960;2023-08-07T07:01:52;73.47;48.58;85.78;;
68279;Laerm;55108;51.790;10.960;2023-08-07T07:04:17;71.10;49.88;80.26;;
68279;Laerm;55108;51.790;10.960;2023-08-07T07:06:43;70.66;42.98;83.97;;
68279;Laerm;55108;51.790;10.960;2023-08-07T07:09:09;69.05;45.59;79.43;;
68279;Laerm;55108;51.790;10.960;2023-08-07T07:11:35;69.10;41.61;80.73;;
68279;Laerm;55108;51.790;10.960;2023-08-07T07:14:00;73.76;48.29;85.26;;
68279;Laerm;55108;51.790;10.960;2023-08-07T07:16:26;68.81;48.26;79.13;;
68279;Laerm;55108;51.790;10.960;2023-08-07T07:18:53;68.03;45.23;78.11;;
68279;Laerm;55108;51.790;10.960;2023-08-07T07:21:21;69.13;48.07;76.53;;
68279;Laerm;55108;51.790;10.960;2023-08-07T07:23:46;67.11;47.84;77.12;;
68279;Laerm;55108;51.790;10.960;2023-08-07T07:26:12;69.77;44.96;84.21;;
68279;Laerm;55108;51.790;10.960;2023-08-07T07:28:38;69.26;45.75;82.39;;
68279;Laerm;55108;51.790;10.960;2023-08-07T07:31:03;69.89;49.95;82.72;;
68279;Laerm;55108;51.790;10.960;2023-08-07T07:33:30;66.29;46.16;75.33;;
68279;Laerm;55108;51.790;10.960;2023-08-07T07:35:56;64.64;41.80;76.00;;
68279;Laerm;55108;51.790;10.960;2023-08-07T07:38:21;67.94;46.43;76.76;;
68279;Laerm;55108;51.790;10.960;2023-08-07T07:40:47;68.32;42.45;77.72;;
68279;Laerm;55108;51.790;10.960;2023-08-07T07:43:13;67.16;44.04;77.45;;
68279;Laerm;55108;51.790;10.960;2023-08-07T07:45:38;69.81;45.24;78.95;;
68279;Laerm;55108;51.790;10.960;2023-08-07T07:48:04;69.46;50.78;79.10;;
68279;Laerm;55108;51.790;10.960;2023-08-07T07:50:31;70.06;45.76;83.43;;
68279;Laerm;55108;51.790;10.960;2023-08-07T07:52:57;69.81;47.31;80.36;;
68279;Laerm;55108;51.790;10.960;2023-08-07T07:55:24;67.51;42.74;78.20;;
68279;Laerm;55108;51.790;10.960;2023-08-07T07:57:49;67.20;46.86;77.45;;
68279;Laerm;55108;51.790;10.960;2023-08-07T08:00:15;69.18;47.41;80.92;;
68279;Laerm;55108;51.790;10.960;2023-08-07T08:02:41;67.12;46.88;75.82;;
68279;Laerm;55108;51.790;10.960;2023-08-07T08:05:08;68.91;47.96;76.05;;
68279;Laerm;55108;51.790;10.960;2023-08-07T08:07:35;67.43;48.34;75.08;;
68279;Laerm;55108;51.790;10.960;2023-08-07T08:10:01;67.60;47.21;78.72;;
68279;Laerm;55108;51.790;10.960;2023-08-07T08:12:27;68.13;44.72;79.88;;
68279;Laerm;55108;51.790;10.960;2023-08-07T08:14:53;66.50;44.17;79.03;;
68279;Laerm;55108;51.790;10.960;2023-08-07T08:17:18;67.15;49.22;77.96;;
68279;Laerm;55108;51.790;10.960;2023-08-07T08:19:44;67.17;43.74;75.89;;
68279;Laerm;55108;51.790;10.960;2023-08-07T08:22:10;67.17;48.78;76.38;;
68279;Laerm;55108;51.790;10.960;2023-08-07T08:24:35;66.05;44.47;76.44;;
68279;Laerm;55108;51.790;10.960;2023-08-07T08:27:01;67.91;49.93;78.74;;
68279;Laerm;55108;51.790;10.960;2023-08-07T08:29:27;67.48;49.79;77.59;;
68279;Laerm;55108;51.790;10.960;2023-08-07T08:31:53;67.12;44.60;79.86;;
68279;Laerm;55108;51.790;10.960;2023-08-07T08:34:19;69.15;49.26;79.52;;
68279;Laerm;55108;51.790;10.960;2023-08-07T08:36:46;69.24;46.88;82.10;;
68279;Laerm;55108;51.790;10.960;2023-08-07T08:39:12;68.29;45.52;77.65;;
68279;Laerm;55108;51.790;10.960;2023-08-07T08:41:38;67.50;46.36;80.49;;
68279;Laerm;55108;51.790;10.960;2023-08-07T08:44:05;65.47;41.99;76.22;;
68279;Laerm;55108;51.790;10.960;2023-08-07T08:46:31;67.79;44.23;79.60;;
68279;Laerm;55108;51.790;10.960;2023-08-07T08:48:59;67.14;44.77;78.35;;
68279;Laerm;55108;51.790;10.960;2023-08-07T08:51:27;69.15;54.03;82.41;;
68279;Laerm;55108;51.790;10.960;2023-08-07T08:53:53;70.39;52.02;80.30;;
68279;Laerm;55108;51.790;10.960;2023-08-07T08:56:21;68.43;49.11;80.08;;
68279;Laerm;55108;51.790;10.960;2023-08-07T08:58:47;67.86;48.56;79.31;;
68279;Laerm;55108;51.790;10.960;2023-08-07T09:01:13;66.53;45.73;74.69;;
68279;Laerm;55108;51.790;10.960;2023-08-07T09:03:39;64.71;42.80;76.28;;
68279;Laerm;55108;51.790;10.960;2023-08-07T09:06:05;66.00;45.57;74.43;;
68279;Laerm;55108;51.790;10.960;2023-08-07T09:08:32;66.53;42.76;76.53;;
68279;Laerm;55108;51.790;10.960;2023-08-07T09:10:58;66.66;46.53;79.10;;
68279;Laerm;55108;51.790;10.960;2023-08-07T09:13:24;68.03;48.62;83.63;;
68279;Laerm;55108;51.790;10.960;2023-08-07T09:15:50;66.04;42.38;82.20;;
68279;Laerm;55108;51.790;10.960;2023-08-07T09:18:16;66.83;43.86;79.05;;
68279;Laerm;55108;51.790;10.960;2023-08-07T09:20:43;65.81;41.44;81.20;;
68279;Laerm;55108;51.790;10.960;2023-08-07T09:23:09;67.44;44.32;80.96;;
68279;Laerm;55108;51.790;10.960;2023-08-07T09:25:34;66.09;45.85;76.05;;
68279;Laerm;55108;51.790;10.960;2023-08-07T09:28:06;67.58;44.04;79.16;;
68279;Laerm;55108;51.790;10.960;2023-08-07T09:30:32;67.16;43.88;76.33;;
68279;Laerm;55108;51.790;10.960;2023-08-07T09:33:00;63.25;45.55;74.57;;
68279;Laerm;55108;51.790;10.960;2023-08-07T09:35:26;66.55;49.24;78.25;;
68279;Laerm;55108;51.790;10.960;2023-08-07T09:37:52;67.64;45.68;81.36;;
68279;Laerm;55108;51.790;10.960;2023-08-07T09:40:18;67.42;50.07;78.69;;
68279;Laerm;55108;51.790;10.960;2023-08-07T09:42:43;66.68;44.26;77.28;;
68279;Laerm;55108;51.790;10.960;2023-08-07T09:45:19;67.11;46.19;75.93;;
68279;Laerm;55108;51.790;10.960;2023-08-07T09:47:45;64.89;45.38;74.42;;
68279;Laerm;55108;51.790;10.960;2023-08-07T09:50:15;66.60;43.22;77.54;;
68279;Laerm;55108;51.790;10.960;2023-08-07T09:52:48;65.95;44.19;79.18;;
68279;Laerm;55108;51.790;10.960;2023-08-07T09:55:13;68.40;47.73;80.29;;
68279;Laerm;55108;51.790;10.960;2023-08-07T09:57:42;68.52;48.94;80.14;;
68279;Laerm;55108;51.790;10.960;2023-08-07T10:00:07;67.43;45.89;77.31;;
68279;Laerm;55108;51.790;10.960;2023-08-07T10:02:36;67.23;45.61;79.12;;
68279;Laerm;55108;51.790;10.960;2023-08-07T10:05:02;67.69;44.63;75.45;;
68279;Laerm;55108;51.790;10.960;2023-08-07T10:07:30;67.82;48.07;81.36;;
68279;Laerm;55108;51.790;10.960;2023-08-07T10:09:56;67.80;43.61;80.99;;
68279;Laerm;55108;51.790;10.960;2023-08-07T10:12:23;67.60;46.06;79.20;;
68279;Laerm;55108;51.790;10.960;2023-08-07T10:14:49;67.13;45.40;79.18;;
68279;Laerm;55108;51.790;10.960;2023-08-07T10:17:16;69.79;48.26;81.96;;
68279;Laerm;55108;51.790;10.960;2023-08-07T10:19:43;68.60;44.85;78.99;;
68279;Laerm;55108;51.790;10.960;2023-08-07T10:22:08;67.13;41.89;79.46;;
68279;Laerm;55108;51.790;10.960;2023-08-07T10:24:35;68.10;45.65;82.77;;
68279;Laerm;55108;51.790;10.960;2023-08-07T10:27:04;66.52;42.12;75.38;;
68279;Laerm;55108;51.790;10.960;2023-08-07T10:29:31;67.84;47.94;79.36;;
68279;Laerm;55108;51.790;10.960;2023-08-07T10:31:57;67.42;45.53;84.46;;
68279;Laerm;55108;51.790;10.960;2023-08-07T10:34:23;67.15;47.63;75.29;;
68279;Laerm;55108;51.790;10.960;2023-08-07T10:36:49;69.29;51.19;79.63;;
68279;Laerm;55108;51.790;10.960;2023-08-07T10:39:15;68.33;46.95;80.45;;
68279;Laerm;55108;51.790;10.960;2023-08-07T10:41:42;66.36;46.22;74.56;;
68279;Laerm;55108;51.790;10.960;2023-08-07T10:44:20;66.38;46.28;76.68;;
68279;Laerm;55108;51.790;10.960;2023-08-07T10:46:52;66.36;44.57;77.62;;
68279;Laerm;55108;51.790;10.960;2023-08-07T10:49:37;67.05;45.77;80.79;;
68279;Laerm;55108;51.790;10.960;2023-08-07T10:52:09;66.49;44.46;79.34;;
68279;Laerm;55108;51.790;10.960;2023-08-07T10:54:36;67.44;47.61;82.08;;
68279;Laerm;55108;51.790;10.960;2023-08-07T10:57:09;65.58;42.77;79.38;;
68279;Laerm;55108;51.790;10.960;2023-08-07T10:59:37;65.49;45.05;77.61;;
68279;Laerm;55108;51.790;10.960;2023-08-07T11:02:02;67.80;47.00;78.07;;
68279;Laerm;55108;51.790;10.960;2023-08-07T11:04:33;70.20;53.11;79.58;;
68279;Laerm;55108;51.790;10.960;2023-08-07T11:07:01;72.58;54.50;85.37;;
68279;Laerm;55108;51.790;10.960;2023-08-07T11:09:27;73.05;53.59;82.32;;
68279;Laerm;55108;51.790;10.960;2023-08-07T11:11:53;72.24;45.99;84.40;;
68279;Laerm;55108;51.790;10.960;2023-08-07T11:14:19;69.62;43.80;80.78;;
68279;Laerm;55108;51.790;10.960;2023-08-07T11:16:45;70.07;47.47;80.61;;
68279;Laerm;55108;51.790;10.960;2023-08-07T11:19:15;67.61;44.65;82.10;;
68279;Laerm;55108;51.790;10.960;2023-08-07T11:21:41;71.05;42.29;84.82;;
68279;Laerm;55108;51.790;10.960;2023-08-07T11:24:07;68.04;43.25;78.10;;
68279;Laerm;55108;51.790;10.960;2023-08-07T11:26:33;69.95;41.27;84.70;;
68279;Laerm;55108;51.790;10.960;2023-08-07T11:28:58;68.79;46.23;82.84;;
68279;Laerm;55108;51.790;10.960;2023-08-07T11:31:25;66.29;46.16;77.16;;
68279;Laerm;55108;51.790;10.960;2023-08-07T11:33:51;69.23;47.14;83.09;;
68279;Laerm;55108;51.790;10.960;2023-08-07T11:36:17;67.41;44.98;82.96;;
68279;Laerm;55108;51.790;10.960;2023-08-07T11:38:43;64.32;46.46;75.07;;
68279;Laerm;55108;51.790;10.960;2023-08-07T11:41:09;67.62;40.52;82.24;;
68279;Laerm;55108;51.790;10.960;2023-08-07T11:43:35;65.53;44.35;77.77;;
68279;Laerm;55108;51.790;10.960;2023-08-07T11:46:05;65.61;44.18;75.95;;
68279;Laerm;55108;51.790;10.960;2023-08-07T11:48:31;67.38;46.43;78.61;;
68279;Laerm;55108;51.790;10.960;2023-08-07T11:50:58;65.46;44.89;81.48;;
68279;Laerm;55108;51.790;10.960;2023-08-07T11:53:25;67.00;46.13;76.86;;
68279;Laerm;55108;51.790;10.960;2023-08-07T11:55:52;69.56;46.42;78.75;;
68279;Laerm;55108;51.790;10.960;2023-08-07T11:58:21;68.40;44.71;82.63;;
68279;Laerm;55108;51.790;10.960;2023-08-07T12:00:46;67.86;45.80;81.44;;
68279;Laerm;55108;51.790;10.960;2023-08-07T12:05:51;65.68;45.33;75.50;;
68279;Laerm;55108;51.790;10.960;2023-08-07T12:08:17;65.61;44.85;76.00;;
68279;Laerm;55108;51.790;10.960;2023-08-07T12:10:43;67.83;46.28;79.77;;
68279;Laerm;55108;51.790;10.960;2023-08-07T12:13:09;68.24;41.53;86.69;;
68279;Laerm;55108;51.790;10.960;2023-08-07T12:15:35;69.17;41.73;82.24;;
68279;Laerm;55108;51.790;10.960;2023-08-07T12:18:02;66.98;47.30;77.98;;
68279;Laerm;55108;51.790;10.960;2023-08-07T12:20:28;70.79;45.91;86.91;;
68279;Laerm;55108;51.790;10.960;2023-08-07T12:22:54;66.00;44.86;76.37;;
68279;Laerm;55108;51.790;10.960;2023-08-07T12:25:20;66.38;50.08;76.46;;
68279;Laerm;55108;51.790;10.960;2023-08-07T12:27:46;69.77;53.26;80.97;;
68279;Laerm;55108;51.790;10.960;2023-08-07T12:30:14;68.59;48.09;83.01;;
68279;Laerm;55108;51.790;10.960;2023-08-07T12:32:39;67.31;49.11;81.36;;
68279;Laerm;55108;51.790;10.960;2023-08-07T12:35:05;69.60;47.91;79.84;;
68279;Laerm;55108;51.790;10.960;2023-08-07T12:37:34;69.20;47.11;87.82;;
68279;Laerm;55108;51.790;10.960;2023-08-07T12:39:59;66.29;45.60;76.85;;
68279;Laerm;55108;51.790;10.960;2023-08-07T12:42:25;68.00;50.07;83.10;;
68279;Laerm;55108;51.790;10.960;2023-08-07T12:44:51;66.59;44.84;76.39;;
68279;Laerm;55108;51.790;10.960;2023-08-07T12:47:17;67.51;45.01;77.59;;
68279;Laerm;55108;51.790;10.960;2023-08-07T12:49:42;66.19;45.04;77.70;;
68279;Laerm;55108;51.790;10.960;2023-08-07T12:52:11;66.06;44.61;78.35;;
68279;Laerm;55108;51.790;10.960;2023-08-07T12:54:36;68.39;45.50;76.96;;
68279;Laerm;55108;51.790;10.960;2023-08-07T12:57:02;68.59;49.78;79.93;;
68279;Laerm;55108;51.790;10.960;2023-08-07T12:59:28;67.47;46.80;85.65;;
68279;Laerm;55108;51.790;10.960;2023-08-07T13:01:54;68.31;46.28;79.10;;
68279;Laerm;55108;51.790;10.960;2023-08-07T13:04:19;64.67;44.55;75.63;;
68279;Laerm;55108;51.790;10.960;2023-08-07T13:06:45;67.00;44.74;77.72;;
68279;Laerm;55108;51.790;10.960;2023-08-07T13:09:11;67.45;46.23;79.43;;
68279;Laerm;55108;51.790;10.960;2023-08-07T13:11:37;67.98;45.13;78.89;;
68279;Laerm;55108;51.790;10.960;2023-08-07T13:14:03;68.18;47.49;82.57;;
68279;Laerm;55108;51.790;10.960;2023-08-07T13:16:29;68.80;46.92;81.36;;
68279;Laerm;55108;51.790;10.960;2023-08-07T13:18:54;66.44;46.29;75.78;;
68279;Laerm;55108;51.790;10.960;2023-08-07T13:21:20;67.44;47.03;81.34;;
68279;Laerm;55108;51.790;10.960;2023-08-07T13:23:46;68.86;50.75;82.97;;
68279;Laerm;55108;51.790;10.960;2023-08-07T13:26:12;67.89;50.31;76.85;;
68279;Laerm;55108;51.790;10.960;2023-08-07T13:28:37;66.85;51.39;82.90;;
68279;Laerm;55108;51.790;10.960;2023-08-07T13:31:03;67.24;48.38;76.44;;
68279;Laerm;55108;51.790;10.960;2023-08-07T13:33:29;67.90;48.20;78.74;;